Hovedside
METAR-TAF:

METAR-TAF

Lufthavner :

Halmstad lufthavn

Halmstad, Sverige

breddegrad: 56-41N, lengdegrad: 012-50E, høyde over havet: 30 m

Gjeldene værobservasjon

Denne rapporten ble laget for 43 minutter siden, klokken 05:50 UTC
Vind 10 kt fra Øst-nordøst
Temperatur 4°C
Luftfuktighet 93%
Trykk 1017 hPa
Sikt 10 km eller mer
Spredte skyer i en høyde av 1000 ft

METAR: ESMT 150550Z 07010KT 9999 SCT010 04/03 Q1017

Tid: 07:33 (06:33 UTC)

Varsel

Denne rapporten ble laget for 1 time og 31 minutter siden, klokken 05:02 UTC
Varsel gyldig fra 15. klokken 06 UTC til 15. klokken 15 UTC
Vind 8 kt fra Øst-nordøst
Sikt: 6000 m
Brutte skyer i en høyde av 1500 ft
Midlertidig
fra 15. klokken 06 UTC til 15. klokken 08 UTC
Brutte skyer i en høyde av 800 ft

TAF: ESMT 150502Z 1506/1515 07008KT 6000 BKN015 TEMPO 1506/1508 BKN008

Værobservasjoner og værvarsel for over 4000 flyplasser (METAR- og TAF-rapporter).

Tilgjengelige stasjoner er representert av de røde og gule prikkene på kartet.

Hold musepekeren over prikken for å se navnet på stasjonen.

Klikk så for å se værobservasjoner og -varsler.

For å forandre kartet kan du klikke på den grønne knappen med svart kryss for å zoome inn, på den grønne knappen med strek for å zoome ut, eller på de grønne pilene for å se tilstøtende kart.


METAR-TAF: